Time;durP1;ratioP1;P1;durP2;ratioP2;P2;SDS_P1;SDS_P2;PMS_P1;PMS_P2;Temp;Humidity;BMP_temperature;BMP_pressure;BME280_temperature;BME280_humidity;BME280_pressure;Samples;Min_cycle;Max_cycle;Signal;HPM_P1;HPM_P2
2023/04/08 00:02:10;;;;;;;3.50;3.20;;;;;;;;;;5064226;28;20203;-28
2023/04/08 00:04:37;;;;;;;5.67;4.10;;;;;;;;;;5072867;28;20231;-28
2023/04/08 00:07:04;;;;;;;4.77;4.27;;;;;;;;;;5072997;28;20193;-29
2023/04/08 00:09:31;;;;;;;5.17;4.10;;;;;;;;;;5072855;28;20201;-29
2023/04/08 00:12:00;;;;;;;5.60;4.70;;;;;;;;;;5059043;28;20216;-27
2023/04/08 00:14:27;;;;;;;4.50;4.10;;;;;;;;;;5057039;28;20574;-29
2023/04/08 00:16:55;;;;;;;4.77;4.27;;;;;;;;;;5059323;28;20208;-28
2023/04/08 00:19:22;;;;;;;7.07;5.40;;;;;;;;;;5069096;28;20201;-27
2023/04/08 00:21:50;;;;;;;4.53;3.77;;;;;;;;;;5060235;28;20198;-28
2023/04/08 00:24:17;;;;;;;5.37;3.50;;;;;;;;;;5069354;28;20440;-25
2023/04/08 00:26:44;;;;;;;6.43;4.57;;;;;;;;;;5067080;28;20213;-27
2023/04/08 00:29:12;;;;;;;4.60;4.20;;;;;;;;;;5057527;28;20308;-29
2023/04/08 00:31:39;;;;;;;4.90;4.17;;;;;;;;;;5056820;28;20205;-26
2023/04/08 00:34:07;;;;;;;5.37;3.53;;;;;;;;;;5054209;28;20218;-29
2023/04/08 00:36:35;;;;;;;5.47;4.80;;;;;;;;;;5056839;28;20208;-30
2023/04/08 00:39:03;;;;;;;7.27;4.90;;;;;;;;;;5052233;28;20218;-28
2023/04/08 00:41:30;;;;;;;5.43;4.63;;;;;;;;;;5053791;28;20240;-28
2023/04/08 00:43:57;;;;;;;4.97;4.27;;;;;;;;;;5064283;28;20213;-28
2023/04/08 00:46:26;;;;;;;6.43;4.87;;;;;;;;;;5061643;28;20237;-28
2023/04/08 00:48:53;;;;;;;5.87;5.00;;;;;;;;;;5059406;28;20217;-29
2023/04/08 00:51:21;;;;;;;6.77;5.07;;;;;;;;;;5053136;28;20328;-29
2023/04/08 00:53:48;;;;;;;7.00;4.97;;;;;;;;;;5055049;28;20225;-30
2023/04/08 00:56:15;;;;;;;8.77;6.63;;;;;;;;;;5053589;28;20217;-29
2023/04/08 00:58:42;;;;;;;10.73;6.80;;;;;;;;;;5072413;28;20218;-28
2023/04/08 01:01:12;;;;;;;7.73;5.47;;;;;;;;;;5066712;28;20210;-26
2023/04/08 01:03:45;;;;;;;8.27;5.57;;;;;;;;;;5054077;28;20226;-27
2023/04/08 01:06:16;;;;;;;6.30;5.67;;;;;;;;;;5068510;28;20189;-27
2023/04/08 01:08:43;;;;;;;6.10;5.17;;;;;;;;;;5062805;28;20213;-30
2023/04/08 01:11:12;;;;;;;6.50;5.80;;;;;;;;;;5058333;28;20201;-28
2023/04/08 01:13:40;;;;;;;7.20;5.60;;;;;;;;;;5062270;28;20225;-29
2023/04/08 01:16:10;;;;;;;8.13;5.70;;;;;;;;;;5056764;28;20198;-30
2023/04/08 01:18:37;;;;;;;11.83;7.80;;;;;;;;;;5063632;28;20222;-31
2023/04/08 01:21:06;;;;;;;10.50;6.63;;;;;;;;;;5065282;28;20198;-28
2023/04/08 01:23:39;;;;;;;7.47;5.80;;;;;;;;;;5065922;28;20229;-26
2023/04/08 01:26:08;;;;;;;6.37;5.67;;;;;;;;;;5072439;28;20213;-27
2023/04/08 01:28:35;;;;;;;7.50;5.33;;;;;;;;;;5053557;28;20204;-27
2023/04/08 01:31:03;;;;;;;6.43;4.87;;;;;;;;;;5055034;28;20212;-28
2023/04/08 01:33:32;;;;;;;9.30;6.40;;;;;;;;;;5068343;28;20232;-30
2023/04/08 01:35:59;;;;;;;7.57;5.53;;;;;;;;;;5058604;28;20208;-29
2023/04/08 01:38:27;;;;;;;7.50;5.90;;;;;;;;;;5050216;28;20225;-26
2023/04/08 01:40:55;;;;;;;7.33;5.70;;;;;;;;;;5064343;28;20288;-28
2023/04/08 01:43:25;;;;;;;8.93;6.77;;;;;;;;;;5062544;28;20228;-25
2023/04/08 01:45:56;;;;;;;7.77;6.27;;;;;;;;;;5049601;28;20677;-29
2023/04/08 01:48:24;;;;;;;10.23;7.47;;;;;;;;;;5060942;28;20218;-31
2023/04/08 01:50:52;;;;;;;11.47;7.03;;;;;;;;;;5063596;28;20206;-30
2023/04/08 01:53:19;;;;;;;10.60;7.53;;;;;;;;;;5071211;28;20226;-25
2023/04/08 01:55:47;;;;;;;11.50;7.77;;;;;;;;;;5061321;28;20277;-26
2023/04/08 01:58:18;;;;;;;10.63;6.57;;;;;;;;;;5054447;28;20228;-27
2023/04/08 02:00:47;;;;;;;10.13;7.30;;;;;;;;;;5065276;28;20201;-26
2023/04/08 02:03:15;;;;;;;9.47;7.13;;;;;;;;;;5060667;28;20233;-28
2023/04/08 02:05:42;;;;;;;9.93;7.63;;;;;;;;;;5064945;28;20205;-26
2023/04/08 02:08:09;;;;;;;10.47;7.63;;;;;;;;;;5071104;28;20201;-28
2023/04/08 02:10:36;;;;;;;10.23;7.67;;;;;;;;;;5063259;28;20211;-27
2023/04/08 02:13:03;;;;;;;12.47;8.27;;;;;;;;;;5056032;28;20225;-30
2023/04/08 02:15:35;;;;;;;11.13;7.10;;;;;;;;;;5065582;28;20214;-28
2023/04/08 02:18:07;;;;;;;10.77;8.40;;;;;;;;;;5054890;28;20229;-26
2023/04/08 02:20:35;;;;;;;9.97;6.93;;;;;;;;;;5058556;28;20218;-29
2023/04/08 02:23:04;;;;;;;9.37;7.23;;;;;;;;;;5050626;28;20240;-29
2023/04/08 02:25:35;;;;;;;11.87;7.87;;;;;;;;;;5062159;28;20221;-28
2023/04/08 02:28:03;;;;;;;11.30;7.47;;;;;;;;;;5070354;28;20198;-25
2023/04/08 02:30:32;;;;;;;7.83;6.50;;;;;;;;;;5066255;28;20213;-26
2023/04/08 02:32:59;;;;;;;9.40;7.17;;;;;;;;;;5053577;28;20228;-27
2023/04/08 02:35:28;;;;;;;10.20;7.70;;;;;;;;;;5059419;28;20215;-28
2023/04/08 02:37:55;;;;;;;10.13;7.50;;;;;;;;;;5070559;28;20216;-28
2023/04/08 02:40:26;;;;;;;9.40;7.30;;;;;;;;;;5060425;28;20206;-29
2023/04/08 02:42:53;;;;;;;8.37;7.33;;;;;;;;;;5064118;28;20213;-29
2023/04/08 02:45:20;;;;;;;8.97;7.50;;;;;;;;;;5051736;28;20205;-28
2023/04/08 02:47:48;;;;;;;9.27;7.17;;;;;;;;;;5057446;28;20214;-28
2023/04/08 02:50:15;;;;;;;11.37;7.27;;;;;;;;;;5065356;28;20203;-28
2023/04/08 02:52:43;;;;;;;8.80;7.17;;;;;;;;;;5068942;28;20225;-27
2023/04/08 02:55:11;;;;;;;10.83;8.00;;;;;;;;;;5057820;28;20222;-28
2023/04/08 02:57:38;;;;;;;9.53;7.60;;;;;;;;;;5068313;28;20212;-28
2023/04/08 03:00:06;;;;;;;10.37;7.93;;;;;;;;;;5067358;28;20407;-29
2023/04/08 03:02:33;;;;;;;10.27;7.47;;;;;;;;;;5057473;28;20212;-28
2023/04/08 03:05:00;;;;;;;10.13;7.80;;;;;;;;;;5063251;28;20193;-27
2023/04/08 03:07:27;;;;;;;10.07;7.90;;;;;;;;;;5070511;28;20193;-25
2023/04/08 03:09:56;;;;;;;9.10;7.00;;;;;;;;;;5060504;28;20213;-29
2023/04/08 03:12:23;;;;;;;11.13;8.23;;;;;;;;;;5057778;28;20213;-26
2023/04/08 03:14:50;;;;;;;10.43;8.37;;;;;;;;;;5061250;28;20197;-27
2023/04/08 03:17:17;;;;;;;9.93;7.23;;;;;;;;;;5056630;28;20197;-28
2023/04/08 03:19:45;;;;;;;11.20;8.33;;;;;;;;;;5068883;28;20225;-29
2023/04/08 03:22:12;;;;;;;10.93;8.37;;;;;;;;;;5070047;28;20398;-25
2023/04/08 03:24:39;;;;;;;11.60;8.87;;;;;;;;;;5062268;28;20230;-28
2023/04/08 03:27:08;;;;;;;13.27;9.50;;;;;;;;;;5055208;28;20206;-28
2023/04/08 03:29:35;;;;;;;12.43;7.13;;;;;;;;;;5055203;28;20202;-29
2023/04/08 03:32:02;;;;;;;9.20;6.97;;;;;;;;;;5053722;28;20301;-28
2023/04/08 03:34:30;;;;;;;9.67;7.73;;;;;;;;;;5066103;28;20228;-27
2023/04/08 03:36:57;;;;;;;9.97;7.30;;;;;;;;;;5050346;28;20202;-26
2023/04/08 03:39:24;;;;;;;10.93;8.10;;;;;;;;;;5048746;28;20283;-29
2023/04/08 03:41:51;;;;;;;10.63;8.27;;;;;;;;;;5061779;28;20204;-31
2023/04/08 03:44:20;;;;;;;11.27;8.47;;;;;;;;;;5063163;28;20305;-26
2023/04/08 03:46:47;;;;;;;12.53;9.20;;;;;;;;;;5053323;28;20202;-26
2023/04/08 03:55:06;;;;;;;10.87;8.00;;;;;;;;;;5068564;28;20239;-27
2023/04/08 03:57:48;;;;;;;12.37;8.70;;;;;;;;;;5073719;28;20205;-27
2023/04/08 04:03:30;;;;;;;11.73;8.53;;;;;;;;;;5058262;28;20236;-29
2023/04/08 04:06:01;;;;;;;11.60;8.27;;;;;;;;;;5092666;28;20209;-28
2023/04/08 04:08:43;;;;;;;11.03;8.73;;;;;;;;;;5092769;28;20437;-27
2023/04/08 04:11:27;;;;;;;11.30;7.73;;;;;;;;;;5073465;28;20205;-27
2023/04/08 04:14:12;;;;;;;9.40;7.70;;;;;;;;;;5080187;28;20228;-26
2023/04/08 04:17:16;;;;;;;13.37;9.07;;;;;;;;;;5064348;28;20209;-27
2023/04/08 04:23:00;;;;;;;11.87;9.00;;;;;;;;;;5090232;28;20236;-29
2023/04/08 04:31:05;;;;;;;11.07;8.27;;;;;;;;;;5066576;28;20228;-26
2023/04/08 04:37:51;;;;;;;11.20;8.47;;;;;;;;;;5063225;28;20553;-28
2023/04/08 04:41:01;;;;;;;10.67;8.20;;;;;;;;;;5058771;28;20234;-30
2023/04/08 04:43:58;;;;;;;10.93;8.30;;;;;;;;;;5106451;22;20285;-28
2023/04/08 04:46:50;;;;;;;12.77;8.27;;;;;;;;;;5095609;28;20288;-26
2023/04/08 04:52:40;;;;;;;11.80;9.37;;;;;;;;;;5096844;28;20203;-29
2023/04/08 04:58:21;;;;;;;11.63;9.03;;;;;;;;;;5076025;28;20213;-28
2023/04/08 05:01:21;;;;;;;10.30;7.97;;;;;;;;;;5082851;28;20205;-28
2023/04/08 05:04:28;;;;;;;9.93;8.10;;;;;;;;;;5074780;28;20221;-27
2023/04/08 05:07:14;;;;;;;8.10;6.50;;;;;;;;;;5076188;28;20211;-27
2023/04/08 05:12:21;;;;;;;10.93;8.33;;;;;;;;;;5049095;28;20241;-32
2023/04/08 05:15:25;;;;;;;9.40;7.33;;;;;;;;;;5016824;28;20206;-34
2023/04/08 05:18:02;;;;;;;11.27;8.43;;;;;;;;;;5021715;28;20206;-31
2023/04/08 05:20:43;;;;;;;10.73;8.00;;;;;;;;;;5035163;28;20229;-32
2023/04/08 05:23:27;;;;;;;10.47;8.10;;;;;;;;;;5034567;28;20234;-31
2023/04/08 05:26:10;;;;;;;11.27;8.40;;;;;;;;;;5029654;28;20210;-37
2023/04/08 05:29:05;;;;;;;13.10;8.33;;;;;;;;;;5026615;28;20300;-34
2023/04/08 05:31:52;;;;;;;11.27;8.00;;;;;;;;;;5014858;28;20222;-36
2023/04/08 05:34:23;;;;;;;14.13;8.37;;;;;;;;;;5019559;28;20215;-35
2023/04/08 05:37:04;;;;;;;12.17;9.27;;;;;;;;;;5015467;28;20235;-35
2023/04/08 05:39:50;;;;;;;12.37;9.10;;;;;;;;;;5015690;28;20234;-40
2023/04/08 05:42:27;;;;;;;12.37;8.53;;;;;;;;;;5030441;28;20401;-39
2023/04/08 05:45:09;;;;;;;12.00;8.90;;;;;;;;;;5015167;28;20219;-36
2023/04/08 05:47:46;;;;;;;10.93;7.90;;;;;;;;;;5026178;28;20210;-37
2023/04/08 05:50:18;;;;;;;10.83;8.43;;;;;;;;;;5028016;28;20210;-35
2023/04/08 05:53:02;;;;;;;12.53;8.63;;;;;;;;;;5014867;28;20231;-35
2023/04/08 05:55:39;;;;;;;11.73;8.80;;;;;;;;;;5031639;28;20210;-33
2023/04/08 05:58:18;;;;;;;12.23;9.30;;;;;;;;;;5028646;28;20230;-38
2023/04/08 06:00:57;;;;;;;10.73;8.30;;;;;;;;;;5028248;28;20238;-35
2023/04/08 06:03:32;;;;;;;14.10;8.73;;;;;;;;;;5024824;28;20231;-35
2023/04/08 06:06:10;;;;;;;11.50;8.60;;;;;;;;;;5027815;28;20206;-34
2023/04/08 06:20:20;;;;;;;12.47;8.27;;;;;;;;;;5009691;28;20223;-25
2023/04/08 06:22:59;;;;;;;10.67;7.73;;;;;;;;;;5013321;28;20228;-27
2023/04/08 06:25:49;;;;;;;11.53;8.33;;;;;;;;;;5016144;28;20211;-26
2023/04/08 06:28:30;;;;;;;11.77;8.10;;;;;;;;;;5014861;28;20227;-26
2023/04/08 06:31:26;;;;;;;10.07;7.90;;;;;;;;;;5016003;28;20234;-26
2023/04/08 06:34:00;;;;;;;10.73;8.00;;;;;;;;;;5018392;28;20215;-25
2023/04/08 06:36:43;;;;;;;12.97;8.53;;;;;;;;;;5017408;28;20214;-28
2023/04/08 06:39:24;;;;;;;12.47;8.60;;;;;;;;;;5031681;28;20226;-27
2023/04/08 06:42:22;;;;;;;10.03;7.83;;;;;;;;;;5026262;28;20266;-27
2023/04/08 06:45:04;;;;;;;10.23;7.63;;;;;;;;;;5016715;28;20204;-28
2023/04/08 06:50:43;;;;;;;11.70;8.33;;;;;;;;;;5020268;28;20348;-28
2023/04/08 06:53:28;;;;;;;12.30;7.33;;;;;;;;;;5033352;28;20231;-27
2023/04/08 06:56:21;;;;;;;10.67;8.57;;;;;;;;;;5027834;28;20206;-26
2023/04/08 06:59:24;;;;;;;12.27;8.07;;;;;;;;;;5022075;28;20201;-28
2023/04/08 07:02:12;;;;;;;11.27;7.73;;;;;;;;;;5023157;28;20202;-26
2023/04/08 07:08:05;;;;;;;10.67;8.13;;;;;;;;;;5053152;28;20278;-27
2023/04/08 07:10:46;;;;;;;13.13;8.67;;;;;;;;;;5049094;28;20198;-26
2023/04/08 07:13:31;;;;;;;10.83;6.07;;;;;;;;;;5045544;28;20222;-27
2023/04/08 07:19:19;;;;;;;11.40;7.90;;;;;;;;;;5033408;28;20221;-27
2023/04/08 07:21:55;;;;;;;11.97;8.57;;;;;;;;;;5033527;28;20194;-28
2023/04/08 07:24:41;;;;;;;12.70;8.07;;;;;;;;;;5039288;28;20221;-28
2023/04/08 07:30:21;;;;;;;10.87;8.20;;;;;;;;;;5048419;28;20194;-27
2023/04/08 07:36:04;;;;;;;10.47;7.90;;;;;;;;;;5032960;28;20219;-27
2023/04/08 07:38:46;;;;;;;10.40;7.60;;;;;;;;;;5033512;28;20206;-28
2023/04/08 07:41:30;;;;;;;9.57;7.53;;;;;;;;;;5036190;28;20213;-25
2023/04/08 07:44:22;;;;;;;10.10;7.40;;;;;;;;;;5044936;28;20217;-26
2023/04/08 07:46:56;;;;;;;10.00;7.37;;;;;;;;;;5041101;28;20195;-26
2023/04/08 07:49:42;;;;;;;11.93;8.47;;;;;;;;;;5049591;28;20204;-25
2023/04/08 07:52:17;;;;;;;12.07;8.00;;;;;;;;;;5051562;28;20256;-28
2023/04/08 07:54:49;;;;;;;10.30;8.33;;;;;;;;;;5052848;28;20221;-26
2023/04/08 07:57:23;;;;;;;10.93;7.77;;;;;;;;;;5040685;28;20207;-27
2023/04/08 07:59:58;;;;;;;9.43;6.97;;;;;;;;;;5038515;28;20222;-26
2023/04/08 08:02:38;;;;;;;10.67;7.80;;;;;;;;;;5042385;28;20197;-25
2023/04/08 08:05:40;;;;;;;10.43;7.60;;;;;;;;;;5038476;28;20242;-26
2023/04/08 08:08:14;;;;;;;11.03;8.17;;;;;;;;;;5032851;28;20195;-28
2023/04/08 08:10:53;;;;;;;11.20;8.00;;;;;;;;;;5040064;28;20205;-28
2023/04/08 08:13:30;;;;;;;8.70;7.40;;;;;;;;;;5050869;28;20221;-28
2023/04/08 08:16:10;;;;;;;12.43;8.63;;;;;;;;;;5040733;28;20244;-25
2023/04/08 08:18:41;;;;;;;11.17;8.87;;;;;;;;;;5049454;28;20288;-26
2023/04/08 08:21:13;;;;;;;9.97;7.80;;;;;;;;;;5042234;28;20238;-27
2023/04/08 08:24:02;;;;;;;11.67;8.27;;;;;;;;;;5036886;28;20626;-25
2023/04/08 08:26:48;;;;;;;9.93;7.27;;;;;;;;;;5055318;28;20201;-28
2023/04/08 08:29:22;;;;;;;10.17;8.33;;;;;;;;;;5039670;28;20202;-28
2023/04/08 08:40:15;;;;;;;11.90;8.57;;;;;;;;;;5049270;28;20284;-28
2023/04/08 08:46:12;;;;;;;12.03;8.67;;;;;;;;;;5054146;28;20241;-27
2023/04/08 09:01:06;;;;;;;10.07;8.47;;;;;;;;;;5053618;28;20232;-27
2023/04/08 09:03:45;;;;;;;11.13;8.70;;;;;;;;;;5053168;28;20252;-27
2023/04/08 09:14:30;;;;;;;13.43;7.73;;;;;;;;;;5053545;28;20233;-32
2023/04/08 09:17:17;;;;;;;11.03;8.80;;;;;;;;;;5044897;28;20231;-31
2023/04/08 09:20:05;;;;;;;10.93;8.70;;;;;;;;;;5036224;28;20211;-37
2023/04/08 09:30:32;;;;;;;11.40;8.53;;;;;;;;;;5093904;28;20314;-26
2023/04/08 09:36:11;;;;;;;9.97;7.80;;;;;;;;;;5067722;28;20209;-28
2023/04/08 09:42:16;;;;;;;11.27;8.70;;;;;;;;;;5071668;28;20248;-28
2023/04/08 09:44:51;;;;;;;11.63;8.80;;;;;;;;;;5075222;28;20217;-27
2023/04/08 09:55:09;;;;;;;11.27;8.60;;;;;;;;;;5107148;28;20215;-32
2023/04/08 09:57:42;;;;;;;10.47;9.17;;;;;;;;;;5107856;28;20200;-33
2023/04/08 10:00:10;;;;;;;11.47;9.43;;;;;;;;;;5105825;28;20218;-36
2023/04/08 10:02:46;;;;;;;9.73;8.70;;;;;;;;;;5100865;28;20197;-34
2023/04/08 10:05:14;;;;;;;10.13;8.60;;;;;;;;;;5088803;28;20192;-35
2023/04/08 10:07:41;;;;;;;9.80;7.93;;;;;;;;;;5094670;28;20220;-33
2023/04/08 10:10:11;;;;;;;10.37;8.10;;;;;;;;;;5085077;28;20284;-33
2023/04/08 10:12:38;;;;;;;10.57;8.23;;;;;;;;;;5081623;28;20229;-35
2023/04/08 10:15:25;;;;;;;12.00;8.10;;;;;;;;;;5072018;28;20535;-35
2023/04/08 10:17:52;;;;;;;8.97;8.00;;;;;;;;;;5076416;28;20520;-35
2023/04/08 10:20:38;;;;;;;10.63;8.97;;;;;;;;;;5079621;28;20307;-34
2023/04/08 10:23:06;;;;;;;10.70;8.43;;;;;;;;;;5071587;28;20224;-34
2023/04/08 10:25:35;;;;;;;8.90;7.47;;;;;;;;;;5079316;28;20209;-34
2023/04/08 10:28:02;;;;;;;9.90;7.50;;;;;;;;;;5091353;28;20234;-34
2023/04/08 10:30:42;;;;;;;8.83;7.47;;;;;;;;;;5086849;28;20201;-34
2023/04/08 10:33:14;;;;;;;11.93;8.30;;;;;;;;;;5078914;28;20697;-35
2023/04/08 10:35:43;;;;;;;9.67;8.67;;;;;;;;;;5080973;28;20201;-33
2023/04/08 10:38:11;;;;;;;11.77;8.73;;;;;;;;;;5071402;28;20232;-34
2023/04/08 10:40:41;;;;;;;12.50;7.97;;;;;;;;;;5072698;28;20313;-34
2023/04/08 10:43:09;;;;;;;9.13;7.97;;;;;;;;;;5076489;28;20215;-35
2023/04/08 10:45:36;;;;;;;10.87;8.57;;;;;;;;;;5082369;28;20201;-33
2023/04/08 10:48:13;;;;;;;8.10;7.23;;;;;;;;;;5085065;28;20193;-34
2023/04/08 10:50:40;;;;;;;11.93;8.17;;;;;;;;;;5091830;28;20626;-34
2023/04/08 10:53:08;;;;;;;10.77;8.13;;;;;;;;;;5093092;28;20349;-33
2023/04/08 10:55:35;;;;;;;10.63;8.73;;;;;;;;;;5089399;28;20204;-36
2023/04/08 10:58:07;;;;;;;10.73;8.53;;;;;;;;;;5090369;28;20224;-35
2023/04/08 11:00:35;;;;;;;11.60;8.43;;;;;;;;;;5088739;28;20240;-33
2023/04/08 11:03:03;;;;;;;10.60;7.90;;;;;;;;;;5083404;28;20224;-33
2023/04/08 11:05:31;;;;;;;9.20;8.30;;;;;;;;;;5090846;28;20193;-33
2023/04/08 11:07:58;;;;;;;10.27;8.63;;;;;;;;;;5093628;28;20204;-33
2023/04/08 11:10:26;;;;;;;10.97;9.00;;;;;;;;;;5078272;28;20201;-34
2023/04/08 11:12:54;;;;;;;10.03;8.37;;;;;;;;;;5083386;28;20242;-36
2023/04/08 11:15:23;;;;;;;13.10;8.67;;;;;;;;;;5074737;28;20194;-34
2023/04/08 11:17:50;;;;;;;11.87;8.43;;;;;;;;;;5081453;28;20227;-35
2023/04/08 11:20:17;;;;;;;10.53;7.87;;;;;;;;;;5084402;28;20557;-35
2023/04/08 11:22:45;;;;;;;10.00;8.43;;;;;;;;;;5092966;28;20222;-32
2023/04/08 11:25:12;;;;;;;10.30;8.10;;;;;;;;;;5087297;28;20245;-34
2023/04/08 11:27:39;;;;;;;11.00;8.50;;;;;;;;;;5083537;28;20202;-36
2023/04/08 11:30:07;;;;;;;10.23;8.97;;;;;;;;;;5092305;28;20197;-33
2023/04/08 11:32:37;;;;;;;11.30;7.87;;;;;;;;;;5073911;28;20408;-35
2023/04/08 11:35:06;;;;;;;11.07;8.40;;;;;;;;;;5080587;28;20197;-35
2023/04/08 11:37:39;;;;;;;9.97;7.93;;;;;;;;;;5072399;28;20257;-32
2023/04/08 11:40:10;;;;;;;10.03;6.97;;;;;;;;;;5072020;28;20220;-35
2023/04/08 11:42:37;;;;;;;8.90;7.67;;;;;;;;;;5078510;28;20541;-33
2023/04/08 11:45:10;;;;;;;9.07;7.60;;;;;;;;;;5084519;28;20193;-35
2023/04/08 11:47:39;;;;;;;9.50;7.33;;;;;;;;;;5077190;28;20197;-33
2023/04/08 11:50:07;;;;;;;8.07;7.17;;;;;;;;;;5085669;28;20299;-33
2023/04/08 11:52:44;;;;;;;7.10;6.40;;;;;;;;;;5092941;28;20287;-33
2023/04/08 11:55:12;;;;;;;8.20;6.73;;;;;;;;;;5086783;28;20215;-34
2023/04/08 11:57:39;;;;;;;9.80;7.60;;;;;;;;;;5086981;28;20201;-36
2023/04/08 12:00:08;;;;;;;7.57;6.77;;;;;;;;;;5082660;28;20197;-35
2023/04/08 12:02:35;;;;;;;9.17;6.80;;;;;;;;;;5078472;28;20285;-34
2023/04/08 12:05:04;;;;;;;7.93;6.17;;;;;;;;;;5083201;28;20220;-36
2023/04/08 12:07:31;;;;;;;6.97;5.73;;;;;;;;;;5090045;28;20211;-35
2023/04/08 12:09:58;;;;;;;9.00;5.90;;;;;;;;;;5080982;28;20736;-34
2023/04/08 12:12:25;;;;;;;8.80;5.87;;;;;;;;;;5077600;28;20201;-35
2023/04/08 12:14:53;;;;;;;7.73;5.70;;;;;;;;;;5081961;28;20200;-33
2023/04/08 12:17:20;;;;;;;6.70;5.70;;;;;;;;;;5078751;28;20204;-32
2023/04/08 12:19:47;;;;;;;8.23;6.20;;;;;;;;;;5069655;28;20546;-35
2023/04/08 12:22:16;;;;;;;6.73;5.70;;;;;;;;;;5070433;28;20225;-34
2023/04/08 12:24:43;;;;;;;6.70;5.50;;;;;;;;;;5076278;28;20671;-35
2023/04/08 12:27:10;;;;;;;7.47;5.30;;;;;;;;;;5084998;28;20197;-36
2023/04/08 12:29:38;;;;;;;6.60;5.90;;;;;;;;;;5069350;28;20197;-34
2023/04/08 12:32:05;;;;;;;7.73;5.80;;;;;;;;;;5074331;28;20196;-35
2023/04/08 12:34:33;;;;;;;6.93;5.97;;;;;;;;;;5081395;28;20225;-36
2023/04/08 12:37:01;;;;;;;6.80;6.10;;;;;;;;;;5089320;28;20201;-35
2023/04/08 12:39:29;;;;;;;9.30;5.67;;;;;;;;;;5073344;28;20205;-35
2023/04/08 12:41:56;;;;;;;8.87;6.27;;;;;;;;;;5085222;28;20213;-31
2023/04/08 12:44:24;;;;;;;14.53;10.30;;;;;;;;;;5089265;28;20736;-35
2023/04/08 12:46:51;;;;;;;6.53;5.10;;;;;;;;;;5081959;28;20201;-37
2023/04/08 12:49:18;;;;;;;7.50;5.57;;;;;;;;;;5072889;28;20200;-36
2023/04/08 12:51:45;;;;;;;8.00;6.30;;;;;;;;;;5090968;28;20193;-33
2023/04/08 12:54:12;;;;;;;7.93;6.20;;;;;;;;;;5082898;28;20710;-36
2023/04/08 12:56:42;;;;;;;8.00;5.73;;;;;;;;;;5080983;28;20665;-35
2023/04/08 12:59:09;;;;;;;8.33;6.50;;;;;;;;;;5077530;28;20205;-35
2023/04/08 13:01:36;;;;;;;9.40;6.67;;;;;;;;;;5077041;28;20225;-35
2023/04/08 13:04:03;;;;;;;7.93;6.67;;;;;;;;;;5084784;28;20225;-33
2023/04/08 13:06:31;;;;;;;6.93;5.63;;;;;;;;;;5092512;28;20193;-33
2023/04/08 13:08:58;;;;;;;14.60;9.50;;;;;;;;;;5095460;28;20224;-35
2023/04/08 13:11:25;;;;;;;8.50;7.17;;;;;;;;;;5075712;28;20288;-36
2023/04/08 13:13:54;;;;;;;8.70;6.70;;;;;;;;;;5087081;28;20224;-35
2023/04/08 13:16:21;;;;;;;9.67;6.83;;;;;;;;;;5079787;28;20406;-33
2023/04/08 13:18:48;;;;;;;6.57;5.80;;;;;;;;;;5082733;28;20197;-34
2023/04/08 13:21:15;;;;;;;12.97;6.90;;;;;;;;;;5076637;28;20216;-32
2023/04/08 13:23:43;;;;;;;6.87;6.13;;;;;;;;;;5072399;28;20233;-34
2023/04/08 13:26:10;;;;;;;8.73;7.07;;;;;;;;;;5073466;28;20201;-33
2023/04/08 13:28:37;;;;;;;7.37;6.47;;;;;;;;;;5091848;28;20201;-34
2023/04/08 13:31:06;;;;;;;10.23;6.70;;;;;;;;;;5083455;28;20193;-36
2023/04/08 13:33:33;;;;;;;6.93;6.00;;;;;;;;;;5073222;28;20236;-36
2023/04/08 13:36:00;;;;;;;9.37;6.53;;;;;;;;;;5084698;28;20539;-34
2023/04/08 13:38:27;;;;;;;7.50;6.00;;;;;;;;;;5092278;28;20200;-35
2023/04/08 13:40:54;;;;;;;8.27;7.07;;;;;;;;;;5080687;28;20205;-35
2023/04/08 13:43:21;;;;;;;7.90;6.63;;;;;;;;;;5082634;28;20217;-36
2023/04/08 13:45:48;;;;;;;8.53;7.00;;;;;;;;;;5071102;28;20291;-34
2023/04/08 13:48:17;;;;;;;9.00;6.83;;;;;;;;;;5082152;28;20193;-35
2023/04/08 13:50:45;;;;;;;7.53;6.10;;;;;;;;;;5083851;28;20201;-34
2023/04/08 13:53:12;;;;;;;7.20;6.33;;;;;;;;;;5073954;28;20252;-34
2023/04/08 13:55:39;;;;;;;9.73;6.93;;;;;;;;;;5074134;28;20623;-34
2023/04/08 13:58:06;;;;;;;8.13;7.00;;;;;;;;;;5086177;28;20201;-33
2023/04/08 14:00:34;;;;;;;9.47;7.30;;;;;;;;;;5083863;28;20204;-34
2023/04/08 14:03:01;;;;;;;8.30;6.97;;;;;;;;;;5074689;28;20217;-33
2023/04/08 14:05:30;;;;;;;7.07;6.37;;;;;;;;;;5082763;28;20200;-34
2023/04/08 14:07:57;;;;;;;8.13;6.53;;;;;;;;;;5094147;28;20207;-34
2023/04/08 14:10:24;;;;;;;8.87;6.93;;;;;;;;;;5083872;28;20229;-34
2023/04/08 14:12:51;;;;;;;7.57;6.23;;;;;;;;;;5074007;28;20263;-34
2023/04/08 14:15:18;;;;;;;9.47;7.03;;;;;;;;;;5073581;28;20193;-34
2023/04/08 14:17:46;;;;;;;7.80;7.00;;;;;;;;;;5076739;28;20212;-32
2023/04/08 14:20:13;;;;;;;10.60;7.47;;;;;;;;;;5073076;28;20198;-34
2023/04/08 14:22:41;;;;;;;12.43;10.10;;;;;;;;;;5073222;28;20217;-33
2023/04/08 14:25:09;;;;;;;10.33;6.60;;;;;;;;;;5085070;28;20197;-34
2023/04/08 14:27:36;;;;;;;8.57;7.33;;;;;;;;;;5081855;28;20188;-33
2023/04/08 14:30:03;;;;;;;8.50;6.97;;;;;;;;;;5072841;28;20201;-37
2023/04/08 14:32:31;;;;;;;13.23;8.70;;;;;;;;;;5083423;28;20375;-36
2023/04/08 14:34:58;;;;;;;11.00;8.30;;;;;;;;;;5073734;28;20193;-34
2023/04/08 14:37:25;;;;;;;8.13;5.93;;;;;;;;;;5074756;28;20618;-36
2023/04/08 14:39:53;;;;;;;7.53;5.80;;;;;;;;;;5075278;28;20205;-32
2023/04/08 14:42:21;;;;;;;8.67;6.57;;;;;;;;;;5074012;28;20651;-33
2023/04/08 14:44:48;;;;;;;8.70;5.90;;;;;;;;;;5073407;28;20296;-33
2023/04/08 14:47:15;;;;;;;6.53;5.07;;;;;;;;;;5079354;28;20199;-33
2023/04/08 14:49:42;;;;;;;6.33;4.90;;;;;;;;;;5089922;28;20196;-32
2023/04/08 14:52:10;;;;;;;7.07;5.40;;;;;;;;;;5073542;28;20280;-34
2023/04/08 14:54:37;;;;;;;6.87;4.60;;;;;;;;;;5071985;28;20686;-33
2023/04/08 14:57:05;;;;;;;6.33;5.00;;;;;;;;;;5078899;28;20210;-35
2023/04/08 14:59:33;;;;;;;7.17;5.20;;;;;;;;;;5093584;28;20197;-32
2023/04/08 15:02:00;;;;;;;5.90;4.80;;;;;;;;;;5090005;28;20216;-36
2023/04/08 15:04:27;;;;;;;4.73;4.20;;;;;;;;;;5082103;28;20599;-33
2023/04/08 15:06:54;;;;;;;5.43;4.40;;;;;;;;;;5073095;28;20218;-32
2023/04/08 15:09:21;;;;;;;3.60;3.10;;;;;;;;;;5072335;28;20258;-32
2023/04/08 15:11:49;;;;;;;4.70;4.20;;;;;;;;;;5075316;28;20191;-35
2023/04/08 15:14:17;;;;;;;4.60;4.00;;;;;;;;;;5092977;28;20566;-35
2023/04/08 15:16:44;;;;;;;3.80;3.50;;;;;;;;;;5082531;28;20208;-34
2023/04/08 15:19:15;;;;;;;3.27;3.03;;;;;;;;;;5075454;28;20692;-33
2023/04/08 15:21:42;;;;;;;3.63;3.27;;;;;;;;;;5072587;28;20217;-33
2023/04/08 15:24:09;;;;;;;3.80;3.37;;;;;;;;;;5071171;28;20243;-33
2023/04/08 15:26:36;;;;;;;3.70;3.40;;;;;;;;;;5085428;28;20207;-33
2023/04/08 15:29:03;;;;;;;5.87;3.63;;;;;;;;;;5078907;28;20189;-31
2023/04/08 15:31:32;;;;;;;3.33;3.00;;;;;;;;;;5071084;28;20204;-34
2023/04/08 15:34:01;;;;;;;5.70;3.53;;;;;;;;;;5084569;28;20217;-33
2023/04/08 15:36:28;;;;;;;3.97;3.10;;;;;;;;;;5091897;28;20197;-32
2023/04/08 15:38:55;;;;;;;3.27;2.70;;;;;;;;;;5081521;28;20209;-32
2023/04/08 15:41:22;;;;;;;4.23;3.00;;;;;;;;;;5081960;28;20197;-34
2023/04/08 15:43:50;;;;;;;4.43;3.00;;;;;;;;;;5080363;28;20694;-34
2023/04/08 15:46:20;;;;;;;3.53;2.80;;;;;;;;;;5075575;28;20216;-35
2023/04/08 15:48:47;;;;;;;3.80;3.40;;;;;;;;;;5083319;28;20196;-35
2023/04/08 15:53:52;;;;;;;3.30;3.00;;;;;;;;;;5236340;22;20228;-35
2023/04/08 15:56:19;;;;;;;4.37;3.17;;;;;;;;;;5082146;28;20204;-37
2023/04/08 15:58:46;;;;;;;3.63;3.33;;;;;;;;;;5070120;28;20209;-34
2023/04/08 16:01:15;;;;;;;3.17;2.80;;;;;;;;;;5075842;28;20207;-35
2023/04/08 16:03:42;;;;;;;4.47;3.17;;;;;;;;;;5078082;28;20232;-34
2023/04/08 16:06:10;;;;;;;4.53;3.23;;;;;;;;;;5069795;28;20378;-32
2023/04/08 16:08:37;;;;;;;4.37;3.30;;;;;;;;;;5069980;28;20205;-36
2023/04/08 16:11:06;;;;;;;4.30;3.10;;;;;;;;;;5077600;28;20208;-35
2023/04/08 16:13:34;;;;;;;2.77;2.57;;;;;;;;;;5074357;28;20232;-35
2023/04/08 16:16:02;;;;;;;3.77;3.20;;;;;;;;;;5079050;28;20202;-36
2023/04/08 16:18:29;;;;;;;3.47;3.17;;;;;;;;;;5080485;28;20231;-35
2023/04/08 16:20:56;;;;;;;5.27;3.63;;;;;;;;;;5070787;28;20201;-34
2023/04/08 16:23:23;;;;;;;5.03;3.47;;;;;;;;;;5071844;28;20698;-33
2023/04/08 16:25:50;;;;;;;4.30;3.67;;;;;;;;;;5077589;28;20197;-34
2023/04/08 16:28:19;;;;;;;4.27;3.70;;;;;;;;;;5091517;28;20654;-34
2023/04/08 16:30:46;;;;;;;2.93;2.63;;;;;;;;;;5088063;28;20228;-35
2023/04/08 16:33:13;;;;;;;4.10;3.70;;;;;;;;;;5091288;28;20212;-32
2023/04/08 16:35:40;;;;;;;3.90;3.57;;;;;;;;;;5076684;28;20655;-34
2023/04/08 16:38:08;;;;;;;3.60;3.30;;;;;;;;;;5075569;28;20232;-34
2023/04/08 16:40:35;;;;;;;4.50;3.90;;;;;;;;;;5079620;28;20212;-34
2023/04/08 16:43:03;;;;;;;3.87;3.47;;;;;;;;;;5083311;28;20769;-32
2023/04/08 16:45:32;;;;;;;3.77;3.33;;;;;;;;;;5072194;28;20441;-35
2023/04/08 16:47:59;;;;;;;3.90;3.50;;;;;;;;;;5089508;28;20575;-34
2023/04/08 16:50:27;;;;;;;3.80;3.43;;;;;;;;;;5077100;28;20201;-33
2023/04/08 16:52:54;;;;;;;5.03;3.90;;;;;;;;;;5073622;28;20233;-33
2023/04/08 16:55:21;;;;;;;4.33;3.90;;;;;;;;;;5075681;28;20201;-35
2023/04/08 16:57:48;;;;;;;4.73;4.00;;;;;;;;;;5087487;28;20210;-36
2023/04/08 17:00:15;;;;;;;5.17;4.43;;;;;;;;;;5084257;28;20203;-33